createdAt,value
2022-12-19T00:01:57.915Z,1.66
2022-12-19T00:04:30.412Z,1.65
2022-12-19T00:07:02.787Z,1.65
2022-12-19T00:09:35.026Z,1.68
2022-12-19T00:12:08.305Z,1.66
2022-12-19T00:14:42.333Z,1.64
2022-12-19T00:17:14.579Z,1.66
2022-12-19T00:19:46.709Z,1.68
2022-12-19T00:22:19.697Z,1.71
2022-12-19T00:24:52.432Z,1.74
2022-12-19T00:27:24.592Z,1.76
2022-12-19T00:29:56.830Z,1.74
2022-12-19T00:32:29.087Z,1.66
2022-12-19T00:35:01.728Z,1.57
2022-12-19T00:37:34.104Z,1.56
2022-12-19T00:40:07.966Z,1.60
2022-12-19T00:42:40.171Z,1.64
2022-12-19T00:45:13.092Z,1.66
2022-12-19T00:47:45.293Z,1.66
2022-12-19T00:50:17.491Z,1.68
2022-12-19T00:52:49.738Z,1.71
2022-12-19T00:55:21.947Z,1.74
2022-12-19T00:57:54.363Z,1.74
2022-12-19T01:00:29.531Z,1.71
2022-12-19T01:03:02.023Z,1.66
2022-12-19T01:05:37.931Z,1.67
2022-12-19T01:08:14.370Z,1.66
2022-12-19T01:10:50.880Z,1.65
2022-12-19T01:13:24.399Z,1.62
2022-12-19T01:15:56.897Z,1.60
2022-12-19T01:18:29.141Z,1.59
2022-12-19T01:21:03.451Z,1.55
2022-12-19T01:23:35.836Z,1.48
2022-12-19T01:26:08.254Z,1.28
2022-12-19T01:28:40.773Z,1.15
2022-12-19T01:31:13.025Z,1.09
2022-12-19T01:33:47.172Z,1.00
2022-12-19T01:36:21.712Z,0.87
2022-12-19T01:38:56.153Z,0.81
2022-12-19T01:41:28.597Z,0.80
2022-12-19T01:44:03.216Z,0.72
2022-12-19T01:46:39.704Z,0.60
2022-12-19T01:49:22.062Z,0.48
2022-12-19T01:52:01.616Z,0.39
2022-12-19T01:54:37.184Z,0.35
2022-12-19T01:57:14.164Z,0.33
2022-12-19T01:59:51.294Z,0.30
2022-12-19T02:02:29.442Z,0.27
2022-12-19T02:05:02.828Z,0.27
2022-12-19T02:07:37.226Z,0.30
2022-12-19T02:10:10.046Z,0.29
2022-12-19T02:12:45.412Z,0.27
2022-12-19T02:15:19.254Z,0.27
2022-12-19T02:18:05.989Z,0.30
2022-12-19T02:21:18.280Z,0.28
2022-12-19T02:24:38.986Z,0.19
2022-12-19T02:27:26.924Z,0.11
2022-12-19T02:30:10.612Z,0.03
2022-12-19T02:32:55.549Z,-0.05
2022-12-19T02:35:35.623Z,-0.09
2022-12-19T02:38:19.693Z,-0.16
2022-12-19T02:40:58.356Z,-0.27
2022-12-19T02:43:36.673Z,-0.34
2022-12-19T02:46:11.226Z,-0.41
2022-12-19T02:48:44.568Z,-0.41
2022-12-19T02:51:17.027Z,-0.41
2022-12-19T02:53:49.778Z,-0.35
2022-12-19T02:56:39.535Z,-0.35
2022-12-19T02:59:23.267Z,-0.38
2022-12-19T03:01:59.597Z,-0.39
2022-12-19T03:04:41.431Z,-0.40
2022-12-19T03:07:20.473Z,-0.44
2022-12-19T03:10:03.362Z,-0.50
2022-12-19T03:12:39.854Z,-0.51
2022-12-19T03:15:13.347Z,-0.50
2022-12-19T03:17:46.058Z,-0.53
2022-12-19T03:20:25.382Z,-0.60
2022-12-19T03:22:57.565Z,-0.65
2022-12-19T03:25:32.077Z,-0.72
2022-12-19T03:28:08.208Z,-0.75
2022-12-19T03:30:44.377Z,-0.77
2022-12-19T03:33:20.751Z,-0.82
2022-12-19T03:35:53.681Z,-0.86
2022-12-19T03:38:26.927Z,-0.90
2022-12-19T03:41:00.937Z,-0.95
2022-12-19T03:43:34.624Z,-0.98
2022-12-19T03:46:14.138Z,-0.95
2022-12-19T03:48:49.422Z,-0.93
2022-12-19T03:51:30.716Z,-0.89
2022-12-19T03:54:07.537Z,-0.85
2022-12-19T03:56:45.895Z,-0.79
2022-12-19T03:59:23.203Z,-0.72
2022-12-19T04:01:57.339Z,-0.62
2022-12-19T04:04:32.773Z,-0.55
2022-12-19T04:07:07.398Z,-0.56
2022-12-19T04:09:42.405Z,-0.47
2022-12-19T04:12:18.880Z,-0.46
2022-12-19T04:14:52.680Z,-0.55
2022-12-19T04:17:32.429Z,-0.62
2022-12-19T04:20:08.006Z,-0.74
2022-12-19T04:22:45.020Z,-0.78
2022-12-19T04:25:24.003Z,-0.82
2022-12-19T04:28:03.112Z,-0.91
2022-12-19T04:30:36.459Z,-1.00
2022-12-19T04:33:09.329Z,-1.03
2022-12-19T04:35:41.876Z,-1.01
2022-12-19T04:38:14.479Z,-0.98
2022-12-19T04:40:46.660Z,-0.97
2022-12-19T04:43:18.897Z,-0.86
2022-12-19T04:45:56.991Z,-0.82
2022-12-19T04:48:30.082Z,-0.78
2022-12-19T04:51:02.356Z,-0.80
2022-12-19T04:53:34.892Z,-0.90
2022-12-19T04:56:08.485Z,-1.00
2022-12-19T04:58:40.769Z,-1.01
2022-12-19T05:01:14.370Z,-1.00
2022-12-19T05:03:51.298Z,-1.04
2022-12-19T05:06:26.695Z,-1.07
2022-12-19T05:08:58.889Z,-1.15
2022-12-19T05:11:31.395Z,-1.15
2022-12-19T05:14:03.649Z,-1.14
2022-12-19T05:16:36.122Z,-1.17
2022-12-19T05:19:08.572Z,-1.28
2022-12-19T05:21:41.967Z,-1.38
2022-12-19T05:24:14.189Z,-1.44
2022-12-19T05:26:46.363Z,-1.52
2022-12-19T05:29:18.882Z,-1.57
2022-12-19T05:31:51.162Z,-1.58
2022-12-19T05:34:23.324Z,-1.52
2022-12-19T05:36:55.452Z,-1.46
2022-12-19T05:39:27.656Z,-1.38
2022-12-19T05:41:59.908Z,-1.33
2022-12-19T05:44:32.539Z,-1.30
2022-12-19T05:47:04.814Z,-1.25
2022-12-19T05:49:36.997Z,-1.19
2022-12-19T05:52:09.242Z,-1.13
2022-12-19T05:54:41.410Z,-1.15
2022-12-19T05:57:13.594Z,-1.18
2022-12-19T05:59:45.996Z,-1.18
2022-12-19T06:02:18.455Z,-1.16
2022-12-19T06:04:50.829Z,-1.17
2022-12-19T06:07:22.959Z,-1.14
2022-12-19T06:09:55.125Z,-1.14
2022-12-19T06:12:27.416Z,-1.18
2022-12-19T06:14:59.626Z,-1.19
2022-12-19T06:17:31.819Z,-1.19
2022-12-19T06:20:04.015Z,-1.13
2022-12-19T06:22:37.065Z,-1.16
2022-12-19T06:25:10.739Z,-1.20
2022-12-19T06:27:42.927Z,-1.24
2022-12-19T06:30:16.485Z,-1.31
2022-12-19T06:32:48.597Z,-1.38
2022-12-19T06:35:20.960Z,-1.41
2022-12-19T06:37:56.598Z,-1.42
2022-12-19T06:40:50.436Z,-1.38
2022-12-19T06:43:22.700Z,-1.39
2022-12-19T06:45:54.943Z,-1.37
2022-12-19T06:48:28.032Z,-1.36
2022-12-19T06:51:00.241Z,-1.40
2022-12-19T06:53:32.699Z,-1.43
2022-12-19T06:56:05.073Z,-1.45
2022-12-19T06:58:37.791Z,-1.45
2022-12-19T07:01:17.009Z,-1.47
2022-12-19T07:03:50.441Z,-1.48
2022-12-19T07:06:23.608Z,-1.47
2022-12-19T07:08:55.858Z,-1.52
2022-12-19T07:11:28.041Z,-1.42
2022-12-19T07:14:00.197Z,-1.38
2022-12-19T07:16:32.548Z,-1.41
2022-12-19T07:19:05.615Z,-1.38
2022-12-19T07:21:38.793Z,-1.36
2022-12-19T07:24:12.866Z,-1.42
2022-12-19T07:26:45.703Z,-1.46
2022-12-19T07:29:17.885Z,-1.54
2022-12-19T07:31:50.112Z,-1.45
2022-12-19T07:34:22.534Z,-1.38
2022-12-19T07:36:54.873Z,-1.33
2022-12-19T07:39:27.424Z,-1.25
2022-12-19T07:41:59.575Z,-1.21
2022-12-19T07:44:31.977Z,-1.23
2022-12-19T07:47:04.147Z,-1.27
2022-12-19T07:49:36.401Z,-1.31
2022-12-19T07:52:09.616Z,-1.33
2022-12-19T07:54:42.211Z,-1.30
2022-12-19T07:57:14.500Z,-1.26
2022-12-19T07:59:47.218Z,-1.25
2022-12-19T08:02:19.436Z,-1.29
2022-12-19T08:04:52.105Z,-1.36
2022-12-19T08:07:24.345Z,-1.43
2022-12-19T08:09:57.288Z,-1.46
2022-12-19T08:12:29.649Z,-1.50
2022-12-19T08:15:01.833Z,-1.47
2022-12-19T08:17:34.101Z,-1.42
2022-12-19T08:20:07.734Z,-1.39
2022-12-19T08:22:40.143Z,-1.39
2022-12-19T08:25:13.485Z,-1.38
2022-12-19T08:27:45.864Z,-1.35
2022-12-19T08:30:19.049Z,-1.34
2022-12-19T08:32:51.226Z,-1.23
2022-12-19T08:35:23.398Z,-1.26
2022-12-19T08:37:55.773Z,-1.30
2022-12-19T08:40:28.067Z,-1.34
2022-12-19T08:43:00.241Z,-1.31
2022-12-19T08:45:32.646Z,-1.25
2022-12-19T08:48:04.959Z,-1.19
2022-12-19T08:50:37.142Z,-1.17
2022-12-19T08:53:09.329Z,-1.14
2022-12-19T08:55:42.037Z,-1.15
2022-12-19T08:58:14.588Z,-1.22
2022-12-19T09:00:54.031Z,-1.27
2022-12-19T09:03:28.104Z,-1.29
2022-12-19T09:06:19.106Z,-1.32
2022-12-19T09:08:51.657Z,-1.33
2022-12-19T09:11:25.959Z,-1.35
2022-12-19T09:14:00.190Z,-1.32
2022-12-19T09:16:32.405Z,-1.26
2022-12-19T09:19:04.607Z,-1.21
2022-12-19T09:21:36.789Z,-1.16
2022-12-19T09:24:10.078Z,-1.13
2022-12-19T09:26:44.195Z,-1.17
2022-12-19T09:29:20.730Z,-1.25
2022-12-19T09:31:56.545Z,-1.33
2022-12-19T09:34:37.986Z,-1.31
2022-12-19T09:37:16.444Z,-1.25
2022-12-19T09:39:50.160Z,-1.25
2022-12-19T09:42:40.813Z,-1.13
2022-12-19T09:45:32.860Z,-1.03
2022-12-19T09:48:06.218Z,-0.98
2022-12-19T09:50:51.109Z,-0.91
2022-12-19T09:53:30.091Z,-0.84
2022-12-19T09:56:04.094Z,-0.80
2022-12-19T09:58:42.426Z,-0.75
2022-12-19T10:01:21.523Z,-0.72
2022-12-19T10:04:01.669Z,-0.68
2022-12-19T10:07:12.516Z,-0.66
2022-12-19T10:11:27.898Z,-0.61
2022-12-19T10:12:53.812Z,-0.57
2022-12-19T10:15:39.006Z,-0.65
2022-12-19T10:18:29.573Z,-0.66
2022-12-19T10:21:08.139Z,-0.60
2022-12-19T10:23:56.919Z,-0.57
2022-12-19T10:26:40.082Z,-0.60
2022-12-19T10:29:36.279Z,-0.67
2022-12-19T10:32:17.248Z,-0.73
2022-12-19T10:34:52.081Z,-0.80
2022-12-19T10:37:37.581Z,-0.82
2022-12-19T10:40:28.254Z,-0.75
2022-12-19T10:43:10.731Z,-0.66
2022-12-19T10:45:49.494Z,-0.61
2022-12-19T10:48:31.057Z,-0.55
2022-12-19T10:51:06.820Z,-0.46
2022-12-19T10:53:39.551Z,-0.37
2022-12-19T10:56:24.636Z,-0.37
2022-12-19T10:59:00.050Z,-0.39
2022-12-19T11:01:36.263Z,-0.35
2022-12-19T11:04:25.765Z,-0.35
2022-12-19T11:07:18.850Z,-0.35
2022-12-19T11:10:35.755Z,-0.41
2022-12-19T11:18:02.278Z,-0.38
2022-12-19T11:21:17.800Z,-0.31
2022-12-19T11:28:28.255Z,-0.40
2022-12-19T11:29:25.596Z,-0.49
2022-12-19T11:30:37.135Z,-0.52
2022-12-19T11:30:46.603Z,-0.52
2022-12-19T11:33:28.733Z,-0.43
2022-12-19T11:36:02.640Z,-0.39
2022-12-19T11:38:48.609Z,-0.31
2022-12-19T11:41:30.121Z,-0.23
2022-12-19T11:44:08.198Z,-0.14
2022-12-19T11:46:46.439Z,-0.19
2022-12-19T11:49:28.830Z,-0.24
2022-12-19T11:52:29.805Z,-0.25
2022-12-19T11:55:12.495Z,-0.20
2022-12-19T11:57:45.220Z,-0.12
2022-12-19T12:00:21.730Z,-0.05
2022-12-19T12:03:17.339Z,0.00
2022-12-19T12:05:50.701Z,0.09
2022-12-19T12:09:41.862Z,0.17
2022-12-19T12:17:02.641Z,0.28
2022-12-19T12:25:53.286Z,0.35
2022-12-19T12:31:00.804Z,0.40
2022-12-19T12:31:14.947Z,0.43
2022-12-19T12:31:45.493Z,0.53
2022-12-19T12:31:50.782Z,0.48
2022-12-19T12:31:57.752Z,0.55
2022-12-19T12:35:31.719Z,0.44
2022-12-19T12:37:51.458Z,0.34
2022-12-19T12:39:25.456Z,0.34
2022-12-19T12:42:10.773Z,0.39
2022-12-19T12:44:46.514Z,0.37
2022-12-19T12:47:22.995Z,0.38
2022-12-19T12:49:59.882Z,0.41
2022-12-19T12:52:36.729Z,0.41
2022-12-19T12:55:17.259Z,0.43
2022-12-19T12:57:49.451Z,0.49
2022-12-19T13:00:26.738Z,0.55
2022-12-19T13:03:07.160Z,0.61
2022-12-19T13:05:53.726Z,0.68
2022-12-19T13:08:41.357Z,0.69
2022-12-19T13:11:53.290Z,0.75
2022-12-19T13:14:47.355Z,0.77
2022-12-19T13:17:47.118Z,0.78
2022-12-19T13:20:44.317Z,0.82
2022-12-19T13:23:42.998Z,0.85
2022-12-19T13:26:41.559Z,0.86
2022-12-19T13:29:35.166Z,0.94
2022-12-19T13:32:16.499Z,0.94
2022-12-19T13:35:12.795Z,0.95
2022-12-19T13:39:56.639Z,0.95
2022-12-19T13:40:59.483Z,0.96
2022-12-19T13:43:49.767Z,0.97
2022-12-19T13:46:40.226Z,0.97
2022-12-19T13:49:16.354Z,0.96
2022-12-19T13:51:55.862Z,0.96
2022-12-19T13:54:33.087Z,0.96
2022-12-19T13:57:09.507Z,0.93
2022-12-19T13:59:59.718Z,0.85
2022-12-19T14:02:44.724Z,0.86
2022-12-19T14:05:36.089Z,0.86
2022-12-19T14:08:24.672Z,0.87
2022-12-19T14:11:28.478Z,0.90
2022-12-19T14:14:16.356Z,0.93
2022-12-19T14:16:51.917Z,0.93
2022-12-19T14:19:27.876Z,0.94
2022-12-19T14:22:20.859Z,0.94
2022-12-19T14:25:44.045Z,0.94
2022-12-19T14:28:20.907Z,0.89
2022-12-19T14:30:51.846Z,0.84
2022-12-19T14:33:44.432Z,0.79
2022-12-19T14:36:27.953Z,0.67
2022-12-19T14:39:24.218Z,0.55
2022-12-19T14:42:12.405Z,0.50
2022-12-19T14:54:03.376Z,0.53
2022-12-19T14:54:13.170Z,0.54
2022-12-19T14:54:29.350Z,0.50
2022-12-19T14:54:52.770Z,0.49
2022-12-19T14:56:58.009Z,0.47
2022-12-19T14:59:33.728Z,0.48
2022-12-19T15:02:28.167Z,0.50
2022-12-19T15:05:09.717Z,0.52
2022-12-19T15:07:45.808Z,0.53
2022-12-19T15:11:04.630Z,0.49
2022-12-19T15:14:51.744Z,0.47
2022-12-19T15:16:29.004Z,0.45
2022-12-19T15:19:02.840Z,0.38
2022-12-19T15:21:35.393Z,0.37
2022-12-19T15:24:08.115Z,0.37
2022-12-19T15:26:51.935Z,0.39
2022-12-19T15:29:24.213Z,0.38
2022-12-19T15:31:56.530Z,0.37
2022-12-19T15:34:35.542Z,0.34
2022-12-19T15:37:09.232Z,0.33
2022-12-19T15:39:41.608Z,0.33
2022-12-19T15:42:21.836Z,0.26
2022-12-19T15:44:58.095Z,0.21
2022-12-19T15:47:34.063Z,0.23
2022-12-19T15:50:15.534Z,0.27
2022-12-19T15:52:48.287Z,0.28
2022-12-19T15:55:23.973Z,0.18
2022-12-19T15:57:59.855Z,0.05
2022-12-19T16:00:37.677Z,-0.12
2022-12-19T16:03:24.561Z,-0.22
2022-12-19T16:05:58.052Z,-0.26
2022-12-19T16:08:31.698Z,-0.31
2022-12-19T16:11:04.011Z,-0.39
2022-12-19T16:13:37.662Z,-0.50
2022-12-19T16:16:15.730Z,-0.59
2022-12-19T16:18:48.901Z,-0.69
2022-12-19T16:21:33.248Z,-0.73
2022-12-19T16:24:06.951Z,-0.77
2022-12-19T16:26:40.910Z,-0.68
2022-12-19T16:29:20.776Z,-0.62
2022-12-19T16:31:53.106Z,-0.55
2022-12-19T16:34:27.225Z,-0.50
2022-12-19T16:36:59.538Z,-0.46
2022-12-19T16:39:31.809Z,-0.45
2022-12-19T16:42:06.253Z,-0.48
2022-12-19T16:44:39.175Z,-0.54
2022-12-19T16:47:16.321Z,-0.58
2022-12-19T16:49:48.645Z,-0.65
2022-12-19T16:52:20.817Z,-0.70
2022-12-19T16:54:53.183Z,-0.78
2022-12-19T16:57:25.634Z,-0.85
2022-12-19T16:59:58.103Z,-0.91
2022-12-19T17:02:44.644Z,-0.97
2022-12-19T17:05:24.065Z,-1.08
2022-12-19T17:07:56.813Z,-1.18
2022-12-19T17:10:33.574Z,-1.26
2022-12-19T17:13:06.471Z,-1.31
2022-12-19T17:15:39.362Z,-1.32
2022-12-19T17:18:15.963Z,-1.29
2022-12-19T17:20:48.899Z,-1.27
2022-12-19T17:23:22.850Z,-1.13
2022-12-19T17:25:55.629Z,-1.05
2022-12-19T17:28:28.251Z,-0.95
2022-12-19T17:31:05.178Z,-0.89
2022-12-19T17:33:39.866Z,-0.80
2022-12-19T17:36:19.728Z,-0.76
2022-12-19T17:38:55.565Z,-0.75
2022-12-19T17:41:28.749Z,-0.87
2022-12-19T17:44:01.060Z,-1.03
2022-12-19T17:46:34.644Z,-1.15
2022-12-19T17:49:07.609Z,-1.17
2022-12-19T17:51:39.773Z,-1.11
2022-12-19T17:54:14.364Z,-1.04
2022-12-19T17:56:46.543Z,-0.99
2022-12-19T17:59:19.177Z,-0.92
2022-12-19T18:01:51.503Z,-0.88
2022-12-19T18:04:24.213Z,-0.82
2022-12-19T18:06:58.446Z,-0.76
2022-12-19T18:09:30.578Z,-0.74
2022-12-19T18:12:02.881Z,-0.62
2022-12-19T18:14:35.066Z,-0.58
2022-12-19T18:17:07.549Z,-0.52
2022-12-19T18:19:39.853Z,-0.47
2022-12-19T18:22:15.910Z,-0.43
2022-12-19T18:24:46.435Z,-0.42
2022-12-19T18:27:18.634Z,-0.39
2022-12-19T18:29:51.100Z,-0.35
2022-12-19T18:32:23.696Z,-0.34
2022-12-19T18:34:56.967Z,-0.35
2022-12-19T18:37:29.278Z,-0.33
2022-12-19T18:40:01.456Z,-0.29
2022-12-19T18:42:34.058Z,-0.27
2022-12-19T18:45:09.028Z,-0.24
2022-12-19T18:47:42.220Z,-0.23
2022-12-19T18:50:23.332Z,-0.24
2022-12-19T18:52:56.505Z,-0.31
2022-12-19T18:55:32.618Z,-0.33
2022-12-19T18:58:04.951Z,-0.32
2022-12-19T19:00:39.005Z,-0.35
2022-12-19T19:03:16.912Z,-0.37
2022-12-19T19:05:49.806Z,-0.37
2022-12-19T19:08:23.969Z,-0.33
2022-12-19T19:10:58.145Z,-0.30
2022-12-19T19:13:31.654Z,-0.27
2022-12-19T19:16:14.922Z,-0.24
2022-12-19T19:18:48.416Z,-0.22
2022-12-19T19:21:21.606Z,-0.20
2022-12-19T19:23:57.180Z,-0.20
2022-12-19T19:26:29.367Z,-0.19
2022-12-19T19:29:01.660Z,-0.18
2022-12-19T19:31:40.018Z,-0.18
2022-12-19T19:34:16.863Z,-0.19
2022-12-19T19:36:53.795Z,-0.18
2022-12-19T19:39:27.877Z,-0.16
2022-12-19T19:42:01.253Z,-0.13
2022-12-19T19:44:33.653Z,-0.10
2022-12-19T19:47:05.989Z,-0.08
2022-12-19T19:49:38.404Z,-0.08
2022-12-19T19:52:10.634Z,-0.08
2022-12-19T19:54:42.767Z,-0.10
2022-12-19T19:57:14.888Z,-0.23
2022-12-19T19:59:47.177Z,-0.39
2022-12-19T20:02:20.031Z,-0.43
2022-12-19T20:04:52.699Z,-0.46
2022-12-19T20:07:24.909Z,-0.46
2022-12-19T20:09:57.107Z,-0.46
2022-12-19T20:12:29.365Z,-0.54
2022-12-19T20:15:01.948Z,-0.57
2022-12-19T20:17:34.180Z,-0.56
2022-12-19T20:20:07.927Z,-0.60
2022-12-19T20:22:40.486Z,-0.63
2022-12-19T20:25:12.862Z,-0.62
2022-12-19T20:27:45.055Z,-0.64
2022-12-19T20:30:18.212Z,-0.66
2022-12-19T20:32:50.385Z,-0.71
2022-12-19T20:35:22.599Z,-0.75
2022-12-19T20:37:54.859Z,-0.77
2022-12-19T20:40:27.189Z,-0.80
2022-12-19T20:42:59.365Z,-0.81
2022-12-19T20:45:31.657Z,-0.83
2022-12-19T20:48:03.808Z,-0.84
2022-12-19T20:50:42.641Z,-0.85
2022-12-19T20:53:15.232Z,-0.84
2022-12-19T20:55:57.806Z,-0.82
2022-12-19T20:58:32.009Z,-0.79
2022-12-19T21:01:08.896Z,-0.76
2022-12-19T21:03:42.254Z,-0.71
2022-12-19T21:06:15.958Z,-0.70
2022-12-19T21:08:48.753Z,-0.69
2022-12-19T21:11:20.960Z,-0.67
2022-12-19T21:13:53.674Z,-0.71
2022-12-19T21:16:26.630Z,-0.75
2022-12-19T21:18:58.878Z,-0.78
2022-12-19T21:21:31.189Z,-0.77
2022-12-19T21:24:03.981Z,-0.79
2022-12-19T21:26:36.188Z,-0.80
2022-12-19T21:29:08.559Z,-0.78
2022-12-19T21:31:40.769Z,-0.77
2022-12-19T21:34:13.669Z,-0.78
2022-12-19T21:36:46.258Z,-0.74
2022-12-19T21:39:20.740Z,-0.71
2022-12-19T21:41:53.310Z,-0.65
2022-12-19T21:44:25.485Z,-0.62
2022-12-19T21:46:57.800Z,-0.57
2022-12-19T21:49:30.317Z,-0.55
2022-12-19T21:52:02.609Z,-0.53
2022-12-19T21:54:34.786Z,-0.51
2022-12-19T21:57:06.984Z,-0.49
2022-12-19T21:59:39.118Z,-0.48
2022-12-19T22:02:13.212Z,-0.48
2022-12-19T22:04:45.562Z,-0.48
2022-12-19T22:07:17.898Z,-0.48
2022-12-19T22:09:50.182Z,-0.47
2022-12-19T22:12:22.420Z,-0.45
2022-12-19T22:14:54.729Z,-0.46
2022-12-19T22:17:26.878Z,-0.44
2022-12-19T22:19:59.054Z,-0.45
2022-12-19T22:22:31.214Z,-0.43
2022-12-19T22:25:03.407Z,-0.42
2022-12-19T22:27:35.584Z,-0.41
2022-12-19T22:30:11.357Z,-0.41
2022-12-19T22:32:44.061Z,-0.40
2022-12-19T22:35:16.441Z,-0.42
2022-12-19T22:37:48.731Z,-0.53
2022-12-19T22:40:21.206Z,-0.60
2022-12-19T22:42:53.566Z,-0.57
2022-12-19T22:45:25.825Z,-0.55
2022-12-19T22:47:58.084Z,-0.61
2022-12-19T22:50:30.261Z,-0.53
2022-12-19T22:53:02.537Z,-0.51
2022-12-19T22:55:34.715Z,-0.51
2022-12-19T22:58:07.440Z,-0.49
2022-12-19T23:00:39.607Z,-0.48
2022-12-19T23:03:12.005Z,-0.49
2022-12-19T23:05:48.532Z,-0.51
2022-12-19T23:08:24.016Z,-0.51
2022-12-19T23:10:56.479Z,-0.51
2022-12-19T23:13:28.823Z,-0.50
2022-12-19T23:16:01.078Z,-0.51
2022-12-19T23:18:33.342Z,-0.55
2022-12-19T23:21:11.547Z,-0.57
2022-12-19T23:23:45.975Z,-0.62
2022-12-19T23:26:20.528Z,-0.70
2022-12-19T23:28:56.250Z,-0.72
2022-12-19T23:31:29.214Z,-0.68
2022-12-19T23:34:01.787Z,-0.66
2022-12-19T23:39:26.161Z,-0.62
2022-12-19T23:41:58.330Z,-0.61
2022-12-19T23:44:30.739Z,-0.58
2022-12-19T23:47:04.217Z,-0.57
2022-12-19T23:49:36.973Z,-0.57
2022-12-19T23:52:09.432Z,-0.56
2022-12-19T23:54:41.770Z,-0.57
2022-12-19T23:57:13.941Z,-0.60
2022-12-19T23:59:46.145Z,-0.62
